Michelle Sloan — WDH8832 — position and weather

sailwx.info

Track history (hours):
 
Tides and Currents Weather Stations Pressure Air Temp Water Temp Dewpoint Dewpoint Depression Visibility Wind Speed Wind Dir Waves Ship Positions

Michelle Sloan

Owner: Harley Marine Services, Inc., Seattle, WA. More information available from US FCC via Universal Licensing System and Coast Guard Vessel Documentation Center.

Last reported at 2017-Dec-09 13:07 UTC. Time now 2017-Dec-13 16:56 UTC.
Position N 33°45' W 118°13'.

Length 24 m; draft 4.9 m.

Type: Towing. MMSI: 367661930.

Date/timePositionNaut miles runAvg speedWind from/ knotsBaromVisibWave heightAir tempDewpointWater temp
2017-Dec-09 13:07N 33°45' W 118°13'0 3.8
2017-Dec-09 13:00N 33°46' W 118°13'  
2017-Dec-03 09:12N 33°45' W 118°12'0 0.1
2017-Dec-03 08:55N 33°45' W 118°12'2 5.1
2017-Dec-03 08:28N 33°43' W 118°14'2 3.1
2017-Dec-03 07:57N 33°44' W 118°16'0 0.0
2017-Dec-03 07:30N 33°44' W 118°16'0 0.0
2017-Dec-03 07:01N 33°44' W 118°16'0 0.0
2017-Dec-02 19:38N 33°44' W 118°16'0 1.1
2017-Dec-02 19:30N 33°44' W 118°16'3 0.5
2017-Dec-02 13:14N 33°46' W 118°13'0 0.2
2017-Dec-02 12:33N 33°46' W 118°13'0 2.9
2017-Dec-02 12:30N 33°46' W 118°13'1 2.7
2017-Dec-02 12:00N 33°45' W 118°13'0 0.1
2017-Dec-02 08:32N 33°45' W 118°12'0 9.3
2017-Dec-02 08:30N 33°45' W 118°12'3 0.2
2017-Dec-01 19:09N 33°44' W 118°16'3 0.5
2017-Dec-01 12:56N 33°45' W 118°12'1 1.1
2017-Dec-01 11:59N 33°44' W 118°12'4 7.9
2017-Dec-01 11:30N 33°44' W 118°16'1 0.3
2017-Dec-01 09:12N 33°44' W 118°16'3 0.5
2017-Dec-01 02:34N 33°45' W 118°12'0 5.4
2017-Dec-01 02:30N 33°45' W 118°12'2 3.7
2017-Dec-01 02:00N 33°46' W 118°13'1 0.2
2017-Nov-30 22:22N 33°45' W 118°13'3 0.2
2017-Nov-30 09:25N 33°45' W 118°16'2 3.8
2017-Nov-30 09:00N 33°44' W 118°15'1 0.2
2017-Nov-30 00:57N 33°45' W 118°16'1 1.9
2017-Nov-30 00:11N 33°44' W 118°16'1 3.4
2017-Nov-30 00:00N 33°43' W 118°16'1 1.7
2017-Nov-29 23:30N 33°44' W 118°16'0 0.0
2017-Nov-29 22:50N 33°44' W 118°16'0 0.0
2017-Nov-29 22:17N 33°44' W 118°16'0 0.0
2017-Nov-29 22:01N 33°44' W 118°16'0 0.0
2017-Nov-29 21:30N 33°44' W 118°16'0 0.0
2017-Nov-29 21:00N 33°44' W 118°16'0 0.0
2017-Nov-29 20:30N 33°44' W 118°16'0 0.0
2017-Nov-29 19:59N 33°44' W 118°16'0 0.0
2017-Nov-29 19:31N 33°44' W 118°16'0 0.0
2017-Nov-29 19:00N 33°44' W 118°16'  
Track history (hours):
 
Tides and Currents Weather Stations Pressure Air Temp Water Temp Dewpoint Dewpoint Depression Visibility Wind Speed Wind Dir Waves Ship Positions

Michelle Sloan

Owner: Harley Marine Services, Inc., Seattle, WA. More information available from US FCC via Universal Licensing System and Coast Guard Vessel Documentation Center.

Last reported at 2017-Dec-09 13:07 UTC. Time now 2017-Dec-13 16:56 UTC.
Position N 33°45' W 118°13'.

Length 24 m; draft 4.9 m.

Type: Towing. MMSI: 367661930.

Date/timePositionNaut miles runAvg speedWind from/ knotsBaromVisibWave heightAir tempDewpointWater temp
2017-Dec-09 13:07N 33°45' W 118°13'0 3.8
2017-Dec-09 13:00N 33°46' W 118°13'  
2017-Dec-03 09:12N 33°45' W 118°12'0 0.1
2017-Dec-03 08:55N 33°45' W 118°12'2 5.1
2017-Dec-03 08:28N 33°43' W 118°14'2 3.1
2017-Dec-03 07:57N 33°44' W 118°16'0 0.0
2017-Dec-03 07:30N 33°44' W 118°16'0 0.0
2017-Dec-03 07:01N 33°44' W 118°16'0 0.0
2017-Dec-02 19:38N 33°44' W 118°16'0 1.1
2017-Dec-02 19:30N 33°44' W 118°16'3 0.5
2017-Dec-02 13:14N 33°46' W 118°13'0 0.2
2017-Dec-02 12:33N 33°46' W 118°13'0 2.9
2017-Dec-02 12:30N 33°46' W 118°13'1 2.7
2017-Dec-02 12:00N 33°45' W 118°13'0 0.1
2017-Dec-02 08:32N 33°45' W 118°12'0 9.3
2017-Dec-02 08:30N 33°45' W 118°12'3 0.2
2017-Dec-01 19:09N 33°44' W 118°16'3 0.5
2017-Dec-01 12:56N 33°45' W 118°12'1 1.1
2017-Dec-01 11:59N 33°44' W 118°12'4 7.9
2017-Dec-01 11:30N 33°44' W 118°16'1 0.3
2017-Dec-01 09:12N 33°44' W 118°16'3 0.5
2017-Dec-01 02:34N 33°45' W 118°12'0 5.4
2017-Dec-01 02:30N 33°45' W 118°12'2 3.7
2017-Dec-01 02:00N 33°46' W 118°13'1 0.2
2017-Nov-30 22:22N 33°45' W 118°13'3 0.2
2017-Nov-30 09:25N 33°45' W 118°16'2 3.8
2017-Nov-30 09:00N 33°44' W 118°15'1 0.2
2017-Nov-30 00:57N 33°45' W 118°16'1 1.9
2017-Nov-30 00:11N 33°44' W 118°16'1 3.4
2017-Nov-30 00:00N 33°43' W 118°16'1 1.7
2017-Nov-29 23:30N 33°44' W 118°16'0 0.0
2017-Nov-29 22:50N 33°44' W 118°16'0 0.0
2017-Nov-29 22:17N 33°44' W 118°16'0 0.0
2017-Nov-29 22:01N 33°44' W 118°16'0 0.0
2017-Nov-29 21:30N 33°44' W 118°16'0 0.0
2017-Nov-29 21:00N 33°44' W 118°16'0 0.0
2017-Nov-29 20:30N 33°44' W 118°16'0 0.0
2017-Nov-29 19:59N 33°44' W 118°16'0 0.0
2017-Nov-29 19:31N 33°44' W 118°16'0 0.0
2017-Nov-29 19:00N 33°44' W 118°16'  

Dump ship's entire track history